11:22
Airports
Links
Donate
Help keep this website running!
PayPal
Bitcoin
METAR
CYYR 111100Z 27017G22KT 15SM DRSN BKN063 BKN086 M16/M20 A2955 RMK SC6AC1 SLP010
Current Weather Conditions at CYYR
VFR 11:00:00 11-12-17
Altimeter:29.55 hg
Temp:-16.0°cf
Dew point:-20.0°c -4°f
Wind:17 knots, 19.6 mph, 9 m/s, from 270°
Visibility:15.0 statute miles
8600(BKN) Broken
6300(BKN) Broken
Past METAR reports
VFR 10:00:00 11-12-17
Altimeter:29.52 hg
Temp:-16.0°cf
Dew point:-19.0°c -2°f
Wind:14 knots, 16.1 mph, 7 m/s, from 260°
Visibility:15.0 statute miles
8600(BKN) Broken
CYYR 111000Z 26014KT 15SM BKN086 M16/M19 A2952 RMK AC6 SH DIST W SLP001
VFR 09:00:00 11-12-17
Altimeter:29.50 hg
Temp:-15.0°cf
Dew point:-18.0°c -0°f
Wind:17 knots, 19.6 mph, 9 m/s, from 260°
Visibility:15.0 statute miles
14000(BKN) Broken
10000(BKN) Broken
CYYR 110900Z 26017G25KT 15SM DRSN BKN100 BKN140 M15/M18 A2950 RMK AC5AC1 SLP993
VFR 08:00:00 11-12-17
Altimeter:29.46 hg
Temp:-13.0°cf
Dew point:-17.0°cf
Wind:19 knots, 21.9 mph, 10 m/s, from 260°
Visibility:15.0 statute miles
5100(BKN) Broken
CYYR 110800Z 26019G24KT 15SM DRSN BKN051 M13/M17 A2946 RMK SC5 SLP981
VFR 07:23:00 11-12-17
Altimeter:29.44 hg
Temp:-13.0°cf
Dew point:-16.0°cf
Wind:21 knots, 24.2 mph, 11 m/s, from 250°
Visibility:12.0 statute miles
7700(SCT) Scattered
5500(FEW) A few
CYYR 110723Z 25021G28KT 12SM DRSN FEW055 SCT077 M13/M16 A2944 RMK SC1AC2 SLP974
VFR 07:00:00 11-12-17
Altimeter:29.44 hg
Temp:-12.0°c 10°f
Dew point:-15.0°cf
Wind:20 knots, 23 mph, 10 m/s, from 260°
Visibility:6.0 statute miles
8100(BKN) Broken
6800(FEW) A few
CYYR 110700Z 26020G27KT 6SM -SN DRSN FEW068 BKN081 M12/M15 A2944 RMK AC2AC4 SLP973
MVFR 06:43:00 11-12-17
Altimeter:29.42 hg
Temp:-11.0°c 12°f
Dew point:-14.0°cf
Wind:16 knots, 18.4 mph, 8 m/s, from 250°
Visibility:4.0 statute miles
8500(OVC) Overcast
7200(BKN) Broken
CYYR 110643Z 25016G22KT 4SM -SN DRSN BKN072 OVC085 M11/M14 A2942 RMK AC5AC3 SLP967
TAF
TAF AMD CYYR 110807Z 1108/1206 25020G30KT P6SM SCT050 TEMPO 1108/1114 BKN050 FM111400 25020G30KT P6SM FEW030 BECMG 1120/1122 24012KT RMK NXT FCST BY 111200Z
Forecast at CYYR
TEMPO 08:00 11-12-17 to 14:00 11-12-17
5000BKN Broken
08:00 11-12-17 to 14:00 11-12-17
Wind:20 Knots from 250°
Visibility:6.21 statute miles
5000SCT Scattered
FM 14:00 11-12-17 to 20:00 11-12-17
Wind:20 Knots from 250°
Visibility:6.21 statute miles
3000FEW A few
BECMG 20:00 11-12-17 to 06:00 12-12-17
Wind:12 Knots from 240°
Visibility:6.21 statute miles
3000FEW A few